Time;durP1;ratioP1;P1;durP2;ratioP2;P2;SDS_P1;SDS_P2;PMS_P1;PMS_P2;Temp;Humidity;BMP_temperature;BMP_pressure;BME280_temperature;BME280_humidity;BME280_pressure;Samples;Min_cycle;Max_cycle;Signal;HPM_P1;HPM_P2
2022/06/27 00:01:09;;;;;;;12.27;2.50;;;14.80;99.90;;;;;;4984546;28;20023;-59
2022/06/27 00:03:35;;;;;;;7.50;2.28;;;14.80;99.90;;;;;;4984313;28;20400;-60
2022/06/27 00:06:01;;;;;;;11.35;2.38;;;14.80;99.90;;;;;;4981236;28;20018;-60
2022/06/27 00:08:26;;;;;;;8.23;2.85;;;14.80;99.90;;;;;;4980247;28;20042;-58
2022/06/27 00:10:52;;;;;;;6.95;2.28;;;14.80;99.90;;;;;;4982456;28;20029;-58
2022/06/27 00:13:18;;;;;;;9.18;2.40;;;14.80;99.90;;;;;;4986755;28;20038;-58
2022/06/27 00:15:44;;;;;;;8.60;2.28;;;14.70;99.90;;;;;;4991042;28;20125;-59
2022/06/27 00:18:09;;;;;;;10.40;2.20;;;14.70;99.90;;;;;;4993142;28;20034;-59
2022/06/27 00:20:35;;;;;;;10.57;2.30;;;14.70;99.90;;;;;;4993174;28;20027;-60
2022/06/27 00:23:01;;;;;;;7.78;2.17;;;14.60;99.90;;;;;;4991238;28;20025;-62
2022/06/27 00:25:26;;;;;;;8.68;2.67;;;14.60;99.90;;;;;;4990756;28;20038;-64
2022/06/27 00:27:52;;;;;;;10.60;2.50;;;14.50;99.90;;;;;;4990843;28;20026;-58
2022/06/27 00:30:18;;;;;;;9.00;2.15;;;14.40;99.90;;;;;;4991683;28;20063;-59
2022/06/27 00:32:44;;;;;;;13.77;2.40;;;14.30;99.90;;;;;;4994025;28;20065;-59
2022/06/27 00:35:10;;;;;;;10.13;2.00;;;14.30;99.90;;;;;;4991183;28;20058;-60
2022/06/27 00:37:36;;;;;;;13.00;2.65;;;14.20;99.90;;;;;;4985301;28;20023;-59
2022/06/27 00:40:03;;;;;;;11.65;2.10;;;14.10;99.90;;;;;;4983528;28;20498;-60
2022/06/27 00:42:28;;;;;;;11.98;2.42;;;14.00;99.90;;;;;;4983832;28;20108;-60
2022/06/27 00:44:54;;;;;;;9.13;2.17;;;13.90;99.90;;;;;;4979504;28;20133;-60
2022/06/27 00:47:20;;;;;;;6.75;2.10;;;13.80;99.90;;;;;;4980571;28;20058;-60
2022/06/27 00:49:46;;;;;;;11.45;2.25;;;13.60;99.90;;;;;;4983671;28;20081;-59
2022/06/27 00:52:13;;;;;;;6.88;2.17;;;13.50;99.90;;;;;;4983380;28;20033;-58
2022/06/27 00:54:42;;;;;;;8.15;2.53;;;13.60;99.90;;;;;;4983140;28;20030;-60
2022/06/27 00:57:10;;;;;;;13.40;2.78;;;13.70;99.90;;;;;;4980918;28;20092;-59
2022/06/27 00:59:36;;;;;;;8.88;2.45;;;13.70;99.90;;;;;;4978997;28;20031;-60
2022/06/27 01:02:02;;;;;;;8.00;2.60;;;13.70;99.90;;;;;;4982079;28;20034;-60
2022/06/27 01:04:29;;;;;;;11.25;2.97;;;13.70;99.90;;;;;;4983319;28;20041;-60
2022/06/27 01:06:55;;;;;;;7.13;2.63;;;13.70;99.90;;;;;;4983718;28;20050;-59
2022/06/27 01:09:22;;;;;;;10.68;2.38;;;13.60;99.90;;;;;;4982484;28;20040;-59
2022/06/27 01:11:49;;;;;;;8.00;2.30;;;13.60;99.90;;;;;;4978740;28;20158;-59
2022/06/27 01:14:16;;;;;;;9.30;2.50;;;13.50;99.90;;;;;;4980013;28;20042;-60
2022/06/27 01:16:41;;;;;;;9.82;2.50;;;13.50;99.90;;;;;;4983641;28;20054;-59
2022/06/27 01:19:12;;;;;;;7.07;2.50;;;13.50;99.90;;;;;;4983106;28;20293;-60
2022/06/27 01:21:47;;;;;;;9.02;2.38;;;13.30;99.90;;;;;;4983087;28;20038;-58
2022/06/27 01:24:12;;;;;;;11.02;2.70;;;13.30;99.90;;;;;;4980835;28;20109;-60
2022/06/27 01:26:40;;;;;;;10.20;2.47;;;13.30;99.90;;;;;;4978516;28;20162;-59
2022/06/27 01:29:06;;;;;;;13.98;3.03;;;13.30;99.90;;;;;;4979481;28;20025;-60
2022/06/27 01:31:35;;;;;;;10.57;2.45;;;13.20;99.90;;;;;;4983131;28;20035;-60
2022/06/27 01:34:01;;;;;;;9.63;2.20;;;13.30;99.90;;;;;;4982677;28;20129;-60
2022/06/27 01:36:42;;;;;;;10.40;2.50;;;13.20;99.90;;;;;;4982855;28;20065;-59
2022/06/27 01:39:15;;;;;;;8.57;2.40;;;13.10;99.90;;;;;;4977785;28;20471;-60
2022/06/27 01:41:48;;;;;;;8.75;2.70;;;13.00;99.90;;;;;;4978140;28;20050;-59
2022/06/27 01:44:14;;;;;;;10.40;2.65;;;13.00;99.90;;;;;;4979843;28;20034;-60
2022/06/27 01:46:41;;;;;;;15.23;2.83;;;12.90;99.90;;;;;;4983017;28;20034;-59
2022/06/27 01:49:07;;;;;;;7.22;2.28;;;12.90;99.90;;;;;;4982418;28;20412;-59
2022/06/27 01:51:35;;;;;;;9.63;2.63;;;12.90;99.90;;;;;;4982147;28;20034;-58
2022/06/27 01:54:01;;;;;;;7.10;2.20;;;12.90;99.90;;;;;;4979050;28;20026;-59
2022/06/27 01:56:28;;;;;;;11.32;2.80;;;12.80;99.90;;;;;;4978152;28;20468;-58
2022/06/27 01:58:57;;;;;;;7.70;2.50;;;12.70;99.90;;;;;;4981969;28;20086;-60
2022/06/27 02:01:24;;;;;;;11.50;2.53;;;12.60;99.90;;;;;;4982595;28;20034;-59
2022/06/27 02:03:50;;;;;;;10.90;2.60;;;12.60;99.90;;;;;;4982254;28;20022;-60
2022/06/27 02:06:16;;;;;;;9.55;2.45;;;12.50;99.90;;;;;;4980669;28;20034;-60
2022/06/27 02:08:46;;;;;;;11.85;2.38;;;12.20;99.90;;;;;;4977005;28;20031;-60
2022/06/27 02:11:13;;;;;;;11.68;2.85;;;12.20;99.90;;;;;;4980186;28;20038;-60
2022/06/27 02:13:39;;;;;;;6.20;2.67;;;12.00;99.90;;;;;;4981595;28;20100;-59
2022/06/27 02:16:09;;;;;;;10.18;2.70;;;12.00;99.90;;;;;;4982129;28;20039;-60
2022/06/27 02:18:36;;;;;;;11.13;2.92;;;11.90;99.90;;;;;;4982137;28;20165;-60
2022/06/27 02:21:02;;;;;;;10.50;3.15;;;11.90;99.90;;;;;;4978511;28;20031;-61
2022/06/27 02:23:28;;;;;;;10.32;2.85;;;12.10;99.90;;;;;;4977710;28;20080;-62
2022/06/27 02:25:55;;;;;;;9.63;2.88;;;12.20;99.90;;;;;;4981416;28;20121;-60
2022/06/27 02:28:22;;;;;;;8.57;2.88;;;12.30;99.90;;;;;;4981809;28;20031;-59
2022/06/27 02:30:49;;;;;;;14.18;3.10;;;12.40;99.90;;;;;;4982103;28;20023;-60
2022/06/27 02:33:15;;;;;;;7.53;2.60;;;12.50;99.90;;;;;;4980268;28;20022;-60
2022/06/27 02:35:44;;;;;;;11.07;2.63;;;12.50;99.90;;;;;;4976715;28;20415;-60
2022/06/27 02:38:11;;;;;;;9.43;2.95;;;12.40;99.90;;;;;;4979154;28;20483;-58
2022/06/27 02:40:39;;;;;;;8.63;2.90;;;12.20;99.90;;;;;;4981735;28;20019;-60
2022/06/27 02:43:08;;;;;;;7.43;2.95;;;12.20;99.90;;;;;;4981686;28;20041;-59
2022/06/27 02:45:36;;;;;;;9.20;3.00;;;12.10;99.90;;;;;;4981653;28;20019;-60
2022/06/27 02:48:03;;;;;;;10.77;3.10;;;12.00;99.90;;;;;;4974475;28;20031;-60
2022/06/27 02:50:32;;;;;;;9.20;2.72;;;12.00;99.90;;;;;;4992326;28;20026;-59
2022/06/27 02:53:03;;;;;;;7.85;2.78;;;12.00;99.90;;;;;;4988176;28;20034;-58
2022/06/27 02:55:37;;;;;;;7.15;2.55;;;12.00;99.90;;;;;;4987726;28;20397;-59
2022/06/27 02:58:12;;;;;;;10.95;3.08;;;11.90;99.90;;;;;;4987918;28;20069;-59
2022/06/27 03:00:41;;;;;;;28.45;21.35;;;11.90;99.90;;;;;;4988114;28;20700;-60
2022/06/27 03:03:09;;;;;;;33.25;24.58;;;11.80;99.90;;;;;;4990398;28;20104;-60
2022/06/27 03:05:35;;;;;;;25.90;18.40;;;11.50;99.90;;;;;;4989918;28;20026;-59
2022/06/27 03:08:01;;;;;;;24.63;16.98;;;11.50;99.90;;;;;;4988775;28;20117;-60
2022/06/27 03:10:26;;;;;;;15.43;10.98;;;11.60;99.90;;;;;;4987741;28;20377;-60
2022/06/27 03:12:52;;;;;;;11.38;5.38;;;11.60;99.90;;;;;;4988633;28;20078;-60
2022/06/27 03:15:18;;;;;;;14.00;7.75;;;11.40;99.90;;;;;;4979912;28;20121;-60
2022/06/27 03:17:44;;;;;;;11.25;3.15;;;11.40;99.90;;;;;;4976578;28;20038;-59
2022/06/27 03:20:10;;;;;;;15.48;6.07;;;11.50;99.90;;;;;;4978262;28;20428;-60
2022/06/27 03:22:36;;;;;;;15.30;11.45;;;11.50;99.90;;;;;;4981081;28;20027;-58
2022/06/27 03:25:01;;;;;;;12.60;7.05;;;11.50;99.90;;;;;;4980990;28;20500;-60
2022/06/27 03:27:27;;;;;;;11.57;6.20;;;11.40;99.90;;;;;;4977084;28;20033;-60
2022/06/27 03:29:53;;;;;;;10.35;5.57;;;11.30;99.90;;;;;;4990068;28;20034;-59
2022/06/27 03:32:18;;;;;;;21.50;17.98;;;11.40;99.90;;;;;;4988389;28;20030;-60
2022/06/27 03:34:44;;;;;;;10.57;7.85;;;11.30;99.90;;;;;;4987164;28;20121;-60
2022/06/27 03:37:10;;;;;;;12.90;7.40;;;11.30;99.90;;;;;;4987787;28;20067;-58
2022/06/27 03:39:36;;;;;;;13.57;7.65;;;11.30;99.90;;;;;;4987385;28;20034;-60
2022/06/27 03:42:02;;;;;;;13.75;7.88;;;11.30;99.90;;;;;;4990677;28;20027;-60
2022/06/27 03:44:29;;;;;;;10.07;6.25;;;11.30;99.90;;;;;;4989101;28;20045;-59
2022/06/27 03:46:55;;;;;;;13.43;5.40;;;11.20;99.90;;;;;;4986965;28;20062;-59
2022/06/27 03:52:04;;;;;;;;;;;11.10;99.90;;;;;;4987334;28;20106;-60
2022/06/27 03:54:30;;;;;;;8.88;2.80;;;11.00;99.90;;;;;;4980244;28;19957;-59
2022/06/27 03:56:57;;;;;;;12.52;3.10;;;10.90;99.90;;;;;;4976708;28;20057;-60
2022/06/27 03:59:23;;;;;;;9.98;2.88;;;10.80;99.90;;;;;;4976827;28;20612;-60
2022/06/27 04:01:49;;;;;;;7.30;2.85;;;10.70;99.90;;;;;;4980805;28;20140;-60
2022/06/27 04:04:15;;;;;;;8.23;2.83;;;10.70;99.90;;;;;;4980469;28;20034;-60
2022/06/27 04:06:40;;;;;;;12.00;2.75;;;10.90;99.90;;;;;;4980690;28;20420;-59
2022/06/27 04:09:06;;;;;;;7.38;2.85;;;10.90;99.90;;;;;;4975617;28;20026;-59
2022/06/27 04:11:32;;;;;;;11.73;3.13;;;11.10;99.90;;;;;;4976065;28;20062;-59
2022/06/27 04:13:57;;;;;;;8.60;3.15;;;11.30;99.90;;;;;;4979523;28;20042;-60
2022/06/27 04:16:23;;;;;;;10.60;3.50;;;11.40;99.90;;;;;;4980767;28;20043;-60
2022/06/27 04:18:49;;;;;;;8.38;3.22;;;11.50;99.90;;;;;;4980653;28;20034;-61
2022/06/27 04:21:15;;;;;;;10.13;3.30;;;11.50;99.90;;;;;;4979277;28;20474;-61
2022/06/27 04:23:40;;;;;;;10.32;3.30;;;11.60;99.90;;;;;;4976015;28;20034;-60
2022/06/27 04:26:06;;;;;;;10.68;3.22;;;11.70;99.90;;;;;;4978920;28;20022;-60
2022/06/27 04:28:32;;;;;;;10.50;3.10;;;11.70;99.90;;;;;;4980466;28;20106;-60
2022/06/27 04:30:58;;;;;;;11.98;2.90;;;11.70;99.90;;;;;;4981680;28;20034;-59
2022/06/27 04:33:23;;;;;;;12.32;2.90;;;11.70;99.90;;;;;;4983426;28;20510;-60
2022/06/27 04:35:50;;;;;;;11.27;3.00;;;11.70;99.90;;;;;;4979498;28;20050;-60
2022/06/27 04:38:18;;;;;;;9.40;3.15;;;11.80;99.90;;;;;;4980602;28;20027;-59
2022/06/27 04:40:44;;;;;;;11.27;3.33;;;11.90;99.90;;;;;;4983865;28;20113;-60
2022/06/27 04:43:10;;;;;;;9.27;3.17;;;11.90;99.90;;;;;;4983820;28;20044;-59
2022/06/27 04:45:36;;;;;;;8.15;3.30;;;12.00;99.90;;;;;;4983329;28;20034;-60
2022/06/27 04:48:05;;;;;;;9.00;2.80;;;12.00;99.90;;;;;;4980728;28;20023;-60
2022/06/27 04:50:31;;;;;;;10.93;3.20;;;12.20;99.90;;;;;;4979222;28;20031;-60
2022/06/27 04:53:00;;;;;;;9.60;2.80;;;12.20;99.90;;;;;;4982758;28;20480;-58
2022/06/27 04:55:26;;;;;;;8.10;3.10;;;12.20;99.90;;;;;;4983306;28;20137;-60
2022/06/27 04:57:53;;;;;;;8.65;3.15;;;12.20;99.90;;;;;;4983534;28;20023;-59
2022/06/27 05:00:19;;;;;;;11.15;3.25;;;12.30;99.90;;;;;;4982356;28;20065;-59
2022/06/27 05:02:46;;;;;;;8.23;3.15;;;12.40;99.90;;;;;;4978727;28;20484;-60
2022/06/27 05:05:12;;;;;;;10.00;3.03;;;12.40;99.90;;;;;;4980764;28;20898;-60
2022/06/27 05:07:38;;;;;;;13.93;3.40;;;12.30;99.90;;;;;;4983635;28;20081;-59
2022/06/27 05:10:05;;;;;;;11.20;3.70;;;12.40;99.90;;;;;;4983252;28;20038;-60
2022/06/27 05:12:31;;;;;;;10.57;3.40;;;12.40;99.90;;;;;;4983207;28;20109;-60
2022/06/27 05:14:57;;;;;;;6.85;2.47;;;12.40;99.90;;;;;;4979110;28;20121;-60
2022/06/27 05:17:26;;;;;;;8.05;3.40;;;12.40;99.90;;;;;;4979136;28;20030;-60
2022/06/27 05:19:52;;;;;;;10.88;3.40;;;12.40;99.90;;;;;;4987750;28;20037;-59
2022/06/27 05:22:18;;;;;;;10.65;3.30;;;12.50;99.90;;;;;;4987483;28;20023;-59
2022/06/27 05:24:43;;;;;;;5.90;2.95;;;12.50;99.90;;;;;;4981084;28;20061;-60
2022/06/27 05:27:09;;;;;;;14.00;3.33;;;12.50;99.90;;;;;;4991801;28;20472;-60
2022/06/27 05:29:36;;;;;;;11.93;3.22;;;12.50;99.90;;;;;;4991515;28;20146;-59
2022/06/27 05:32:03;;;;;;;12.10;3.40;;;12.60;99.90;;;;;;4990475;28;20019;-59
2022/06/27 05:34:29;;;;;;;9.43;3.20;;;12.60;99.90;;;;;;4989553;28;20032;-60
2022/06/27 05:36:55;;;;;;;11.27;3.60;;;12.70;99.90;;;;;;4989204;28;20060;-59
2022/06/27 05:39:21;;;;;;;11.05;3.60;;;12.70;99.90;;;;;;4989733;28;20031;-60
2022/06/27 05:41:46;;;;;;;9.27;3.30;;;12.70;99.90;;;;;;4991646;28;20115;-60
2022/06/27 05:44:15;;;;;;;9.80;3.50;;;12.80;99.90;;;;;;4989295;28;20026;-59
2022/06/27 05:46:41;;;;;;;12.20;3.78;;;12.80;99.90;;;;;;4989070;28;20057;-60
2022/06/27 05:49:11;;;;;;;11.88;3.67;;;12.90;99.90;;;;;;4988024;28;20026;-60
2022/06/27 05:51:37;;;;;;;8.90;4.60;;;12.90;99.90;;;;;;4991160;28;20125;-60
2022/06/27 05:54:05;;;;;;;11.80;5.65;;;12.90;99.90;;;;;;4992146;28;20037;-60
2022/06/27 05:56:33;;;;;;;14.63;7.07;;;13.00;99.90;;;;;;4977632;28;20081;-60
2022/06/27 05:58:59;;;;;;;14.43;6.32;;;13.00;99.90;;;;;;4980900;28;20033;-60
2022/06/27 06:01:25;;;;;;;10.00;4.85;;;13.10;99.90;;;;;;4982425;28;20487;-60
2022/06/27 06:03:52;;;;;;;16.83;5.57;;;13.10;99.90;;;;;;4981485;28;20046;-59
2022/06/27 06:06:18;;;;;;;12.75;5.10;;;13.10;99.90;;;;;;4990255;28;20058;-60
2022/06/27 06:08:45;;;;;;;8.93;4.80;;;13.10;99.90;;;;;;4992260;28;20034;-59
2022/06/27 06:11:13;;;;;;;11.32;4.93;;;13.20;99.90;;;;;;4988015;28;20622;-60
2022/06/27 06:13:39;;;;;;;13.38;4.72;;;13.30;99.90;;;;;;4988222;28;20031;-59
2022/06/27 06:16:06;;;;;;;14.07;4.70;;;13.30;99.90;;;;;;4983773;28;20035;-60
2022/06/27 06:18:33;;;;;;;11.75;5.40;;;13.30;99.90;;;;;;4978605;28;20031;-60
2022/06/27 06:20:59;;;;;;;13.68;5.07;;;13.40;99.90;;;;;;4992305;28;20097;-60
2022/06/27 06:23:25;;;;;;;14.25;5.18;;;13.40;99.90;;;;;;4989527;28;20110;-59
2022/06/27 06:25:52;;;;;;;11.15;6.03;;;13.40;99.90;;;;;;4981248;28;20031;-60
2022/06/27 06:28:18;;;;;;;14.18;7.00;;;13.40;99.90;;;;;;4981880;28;20556;-60
2022/06/27 06:30:44;;;;;;;12.40;7.63;;;13.50;99.90;;;;;;4981836;28;20030;-60
2022/06/27 06:33:10;;;;;;;16.08;7.22;;;13.50;99.90;;;;;;4979778;28;20034;-60
2022/06/27 06:35:36;;;;;;;16.20;6.45;;;13.50;99.90;;;;;;4977192;28;20468;-59
2022/06/27 06:38:03;;;;;;;14.25;6.25;;;13.60;99.90;;;;;;4980492;28;20476;-58
2022/06/27 06:40:30;;;;;;;12.23;6.20;;;13.60;99.90;;;;;;4981912;28;20122;-60
2022/06/27 06:42:56;;;;;;;12.18;5.88;;;13.90;99.90;;;;;;4981165;28;20081;-59
2022/06/27 06:45:22;;;;;;;11.93;5.43;;;13.80;99.90;;;;;;4981175;28;20022;-60
2022/06/27 06:47:50;;;;;;;11.75;4.90;;;13.90;99.90;;;;;;4976914;28;20388;-60
2022/06/27 06:50:18;;;;;;;11.43;5.40;;;14.10;99.90;;;;;;4978263;28;20022;-60
2022/06/27 06:52:51;;;;;;;15.30;5.43;;;14.20;99.90;;;;;;4987842;28;20030;-60
2022/06/27 06:55:21;;;;;;;14.87;4.83;;;14.20;99.90;;;;;;4981270;28;20511;-59
2022/06/27 06:57:48;;;;;;;8.55;5.15;;;14.40;99.90;;;;;;4981019;28;20274;-60
2022/06/27 07:00:15;;;;;;;10.20;5.25;;;14.60;99.90;;;;;;4979808;28;20035;-60
2022/06/27 07:02:41;;;;;;;10.15;5.20;;;14.80;99.90;;;;;;4976680;28;20392;-60
2022/06/27 07:05:13;;;;;;;9.88;3.45;;;14.90;99.90;;;;;;4979688;28;20027;-60
2022/06/27 07:07:42;;;;;;;7.25;3.17;;;15.00;99.90;;;;;;4980972;28;20030;-59
2022/06/27 07:10:09;;;;;;;10.77;3.30;;;15.30;99.90;;;;;;4981075;28;20033;-60
2022/06/27 07:12:36;;;;;;;11.55;3.25;;;15.60;99.90;;;;;;4980958;28;20060;-59
2022/06/27 07:15:05;;;;;;;9.85;3.20;;;15.90;99.90;;;;;;4978007;28;20038;-60
2022/06/27 07:17:46;;;;;;;9.93;2.95;;;16.40;99.90;;;;;;4977034;28;20392;-60
2022/06/27 07:20:13;;;;;;;8.20;2.58;;;17.00;99.90;;;;;;4977467;28;20536;-60
2022/06/27 07:22:40;;;;;;;10.13;2.67;;;17.50;99.90;;;;;;4986148;28;20077;-60
2022/06/27 07:25:07;;;;;;;7.43;2.50;;;17.60;99.90;;;;;;4987267;28;20058;-59
2022/06/27 07:27:34;;;;;;;8.20;2.75;;;17.50;99.90;;;;;;4987582;28;20035;-60
2022/06/27 07:30:04;;;;;;;14.38;2.70;;;17.60;99.90;;;;;;4991584;28;20030;-60
2022/06/27 07:32:31;;;;;;;10.27;2.60;;;17.50;99.90;;;;;;4989122;28;20365;-60
2022/06/27 07:34:59;;;;;;;9.43;2.75;;;17.80;99.90;;;;;;4987198;28;20088;-60
2022/06/27 07:37:25;;;;;;;11.00;2.80;;;18.00;99.90;;;;;;4987402;28;20034;-58
2022/06/27 07:39:50;;;;;;;9.27;2.58;;;18.20;99.90;;;;;;4986697;28;20039;-60
2022/06/27 07:42:16;;;;;;;8.50;2.40;;;18.60;99.90;;;;;;4989298;28;20038;-59
2022/06/27 07:44:42;;;;;;;7.95;2.30;;;19.30;99.90;;;;;;4990673;28;20117;-60
2022/06/27 07:47:09;;;;;;;7.50;2.10;;;20.00;99.90;;;;;;4989202;28;20101;-60
2022/06/27 07:49:35;;;;;;;8.73;2.13;;;20.30;99.90;;;;;;4988473;28;20041;-61
2022/06/27 07:52:01;;;;;;;6.70;2.20;;;22.00;99.90;;;;;;4987127;28;20027;-60
2022/06/27 07:54:27;;;;;;;9.35;2.20;;;22.80;99.90;;;;;;4987191;28;20074;-61
2022/06/27 07:56:55;;;;;;;7.25;2.00;;;26.30;99.90;;;;;;4988416;28;20136;-61
2022/06/27 07:59:22;;;;;;;6.43;2.13;;;27.30;99.90;;;;;;4981757;28;20541;-60
2022/06/27 08:01:48;;;;;;;5.80;1.92;;;26.60;99.90;;;;;;4982213;28;20484;-60
2022/06/27 08:04:15;;;;;;;6.93;2.00;;;26.80;99.20;;;;;;4981744;28;20046;-60
2022/06/27 08:06:42;;;;;;;8.60;2.00;;;27.60;98.40;;;;;;4987032;28;20073;-60
2022/06/27 08:09:09;;;;;;;6.85;1.83;;;28.60;97.90;;;;;;4983889;28;20026;-59
2022/06/27 08:11:37;;;;;;;6.75;2.13;;;29.30;94.60;;;;;;4986816;28;20372;-59
2022/06/27 08:14:09;;;;;;;6.25;2.30;;;28.50;97.20;;;;;;4993866;28;20030;-60
2022/06/27 08:16:37;;;;;;;5.85;2.00;;;27.50;96.90;;;;;;4992784;28;20519;-60
2022/06/27 08:19:03;;;;;;;5.93;1.88;;;29.40;96.10;;;;;;4992402;28;20122;-60
2022/06/27 08:21:30;;;;;;;6.05;1.90;;;30.20;93.00;;;;;;4992990;28;20121;-60
2022/06/27 08:24:01;;;;;;;7.40;1.98;;;31.20;93.50;;;;;;4992084;28;20046;-60
2022/06/27 08:26:29;;;;;;;4.78;1.92;;;29.50;92.70;;;;;;4992052;28;20019;-59
2022/06/27 08:28:56;;;;;;;4.45;1.83;;;26.80;95.30;;;;;;4983651;28;20081;-59
2022/06/27 08:31:21;;;;;;;4.25;1.60;;;27.60;95.50;;;;;;4983890;28;20022;-60
2022/06/27 08:33:49;;;;;;;5.82;1.58;;;30.20;92.10;;;;;;4983753;28;20105;-61
2022/06/27 08:36:17;;;;;;;5.05;1.75;;;30.60;90.10;;;;;;4982447;28;20034;-58
2022/06/27 08:38:48;;;;;;;8.10;1.70;;;29.20;91.50;;;;;;4978754;28;20102;-59
2022/06/27 08:41:14;;;;;;;4.68;1.60;;;30.50;91.50;;;;;;4980785;28;20038;-60
2022/06/27 08:43:40;;;;;;;4.72;1.60;;;31.30;90.50;;;;;;4983493;28;20114;-60
2022/06/27 08:46:07;;;;;;;5.88;1.48;;;30.90;87.80;;;;;;4983579;28;20420;-61
2022/06/27 08:48:37;;;;;;;3.50;1.52;;;30.20;90.40;;;;;;4983683;28;20050;-61
2022/06/27 08:51:04;;;;;;;6.20;1.63;;;31.80;89.70;;;;;;4980606;28;20022;-59
2022/06/27 08:53:32;;;;;;;4.18;1.60;;;32.40;86.30;;;;;;4979138;28;20026;-59
2022/06/27 08:55:59;;;;;;;4.53;1.50;;;33.80;85.50;;;;;;4989788;28;20177;-60
2022/06/27 08:58:27;;;;;;;3.88;1.50;;;33.80;85.50;;;;;;4990061;28;20023;-61
2022/06/27 09:00:53;;;;;;;6.15;1.60;;;30.40;90.10;;;;;;4989911;28;20074;-61
2022/06/27 09:03:21;;;;;;;4.32;1.40;;;31.20;90.30;;;;;;4994435;28;20022;-61
2022/06/27 09:06:00;;;;;;;4.68;1.27;;;33.60;84.60;;;;;;4978811;28;20026;-61
2022/06/27 09:08:33;;;;;;;5.53;1.52;;;32.70;84.60;;;;;;4990865;28;20602;-59
2022/06/27 09:11:00;;;;;;;4.35;1.52;;;30.60;86.80;;;;;;4990144;28;20080;-61
2022/06/27 09:13:28;;;;;;;4.47;1.50;;;28.00;91.10;;;;;;4989851;28;20111;-60
2022/06/27 09:16:03;;;;;;;5.22;1.73;;;27.60;93.70;;;;;;4990354;28;20043;-60
2022/06/27 09:18:34;;;;;;;3.78;1.45;;;27.10;93.10;;;;;;4979359;28;20038;-61
2022/06/27 09:21:05;;;;;;;4.68;1.70;;;26.70;93.50;;;;;;4993039;28;20084;-60
2022/06/27 09:23:49;;;;;;;5.60;1.65;;;26.90;94.10;;;;;;4991221;28;20042;-60
2022/06/27 09:26:19;;;;;;;6.15;1.70;;;25.30;93.60;;;;;;4979375;28;20486;-60
2022/06/27 09:28:50;;;;;;;5.68;1.52;;;25.10;95.70;;;;;;4982996;28;20042;-60
2022/06/27 09:31:28;;;;;;;4.93;1.63;;;25.00;96.00;;;;;;4983343;28;20109;-61
2022/06/27 09:34:12;;;;;;;5.22;1.70;;;24.80;95.70;;;;;;4982470;28;20038;-61
2022/06/27 09:36:42;;;;;;;4.93;1.60;;;23.80;97.00;;;;;;4982829;28;20141;-59
2022/06/27 09:39:28;;;;;;;4.55;1.67;;;24.70;97.80;;;;;;4980342;28;20126;-61
2022/06/27 09:42:01;;;;;;;4.78;1.73;;;24.80;96.90;;;;;;4978542;28;20034;-59
2022/06/27 09:44:30;;;;;;;6.28;1.70;;;25.40;97.20;;;;;;4990482;28;20036;-61
2022/06/27 09:47:02;;;;;;;4.68;1.50;;;25.00;96.40;;;;;;4981945;28;20027;-60
2022/06/27 09:49:34;;;;;;;5.40;1.35;;;25.30;97.10;;;;;;4982545;28;20039;-61
2022/06/27 09:52:04;;;;;;;5.75;1.42;;;24.60;97.00;;;;;;4982596;28;20527;-59
2022/06/27 09:54:32;;;;;;;6.82;1.50;;;25.80;96.50;;;;;;4982524;28;20100;-59
2022/06/27 09:56:59;;;;;;;3.97;1.45;;;26.10;95.40;;;;;;4977917;28;20108;-59
2022/06/27 09:59:25;;;;;;;4.43;1.50;;;26.00;94.10;;;;;;4990161;28;20407;-60
2022/06/27 10:01:53;;;;;;;5.75;1.52;;;26.50;96.10;;;;;;4989742;28;20022;-60
2022/06/27 10:04:21;;;;;;;4.35;1.58;;;26.10;93.30;;;;;;4988789;28;20495;-60
2022/06/27 10:06:47;;;;;;;6.20;1.35;;;27.60;93.90;;;;;;4988553;28;20061;-59
2022/06/27 10:09:14;;;;;;;4.70;1.58;;;26.00;92.20;;;;;;4990811;28;20038;-59
2022/06/27 10:11:40;;;;;;;8.43;1.80;;;25.70;92.60;;;;;;4991492;28;20491;-59
2022/06/27 10:14:35;;;;;;;5.75;1.70;;;26.70;93.00;;;;;;4989672;28;20088;-60
2022/06/27 10:17:03;;;;;;;6.90;1.90;;;26.80;91.90;;;;;;4976460;28;20135;-60
2022/06/27 10:19:29;;;;;;;3.03;1.20;;;26.60;94.80;;;;;;4988208;28;20031;-60
2022/06/27 10:21:56;;;;;;;4.35;1.50;;;25.10;93.00;;;;;;4989275;28;20091;-58
2022/06/27 10:24:23;;;;;;;4.53;1.40;;;26.30;93.60;;;;;;4981177;28;20030;-60
2022/06/27 10:26:55;;;;;;;4.53;1.27;;;26.70;94.50;;;;;;4977644;28;20423;-59
2022/06/27 10:29:30;;;;;;;5.10;1.65;;;25.80;93.10;;;;;;4988873;28;20535;-59
2022/06/27 10:31:59;;;;;;;4.78;1.80;;;25.80;94.60;;;;;;4981227;28;20038;-60
2022/06/27 10:34:48;;;;;;;6.18;1.80;;;26.40;93.30;;;;;;4981438;28;20389;-60
2022/06/27 10:37:25;;;;;;;7.55;2.10;;;26.30;94.40;;;;;;4974396;28;20042;-60
2022/06/27 10:39:52;;;;;;;15.18;4.25;;;25.70;93.80;;;;;;4985324;28;20027;-60
2022/06/27 10:42:50;;;;;;;12.80;4.22;;;25.40;94.60;;;;;;4977455;28;20030;-60
2022/06/27 10:45:23;;;;;;;11.98;3.78;;;25.00;96.30;;;;;;4977251;28;20038;-60
2022/06/27 10:47:50;;;;;;;;;;;24.70;95.40;;;;;;4992398;28;20026;-60
2022/06/27 10:50:18;;;;;;;12.63;5.22;;;24.10;95.60;;;;;;4988523;28;19905;-60
2022/06/27 10:52:45;;;;;;;33.83;21.90;;;24.80;96.50;;;;;;4988193;28;20034;-59
2022/06/27 10:55:29;;;;;;;6.65;2.78;;;24.70;95.60;;;;;;4987629;28;20050;-60
2022/06/27 10:57:56;;;;;;;15.45;7.57;;;23.70;95.60;;;;;;4987888;28;20018;-59
2022/06/27 11:00:42;;;;;;;8.55;3.53;;;24.10;97.00;;;;;;4992314;28;20026;-60
2022/06/27 11:03:31;;;;;;;6.00;2.10;;;24.00;96.70;;;;;;4976765;28;20450;-59
2022/06/27 11:05:58;;;;;;;4.65;1.77;;;24.50;96.10;;;;;;4977051;28;20023;-60
2022/06/27 11:08:25;;;;;;;4.20;1.98;;;24.30;95.40;;;;;;4988854;28;20019;-59
2022/06/27 11:10:51;;;;;;;4.00;1.50;;;23.70;96.50;;;;;;4986992;28;20022;-59
2022/06/27 11:13:39;;;;;;;3.95;1.40;;;23.60;96.90;;;;;;4986379;28;20030;-59
2022/06/27 11:16:06;;;;;;;7.00;1.75;;;22.50;98.00;;;;;;4986734;28;20453;-59
2022/06/27 11:18:51;;;;;;;5.75;1.38;;;22.10;97.40;;;;;;4980760;28;20105;-58
2022/06/27 11:21:25;;;;;;;3.45;1.40;;;21.80;96.10;;;;;;4979909;28;20029;-58
2022/06/27 11:24:02;;;;;;;6.88;1.60;;;22.50;97.40;;;;;;4976473;28;20099;-58
2022/06/27 11:26:36;;;;;;;4.55;1.60;;;21.70;96.30;;;;;;4988886;28;20038;-59
2022/06/27 11:32:02;;;;;;;5.38;1.50;;;23.00;95.50;;;;;;4987012;28;20089;-58
2022/06/27 11:34:30;;;;;;;3.55;1.40;;;22.70;96.80;;;;;;4987206;28;20395;-60
2022/06/27 11:36:58;;;;;;;5.65;1.58;;;22.90;96.90;;;;;;4987167;28;20033;-59
2022/06/27 11:39:26;;;;;;;4.22;1.63;;;22.10;96.90;;;;;;4992244;28;20026;-59
2022/06/27 11:41:57;;;;;;;5.45;1.42;;;22.90;97.00;;;;;;4979378;28;20034;-59
2022/06/27 11:44:23;;;;;;;4.95;1.38;;;23.10;95.90;;;;;;4992320;28;20030;-58
2022/06/27 11:46:51;;;;;;;5.90;1.67;;;23.60;94.90;;;;;;4990877;28;20034;-59
2022/06/27 11:49:27;;;;;;;6.15;1.55;;;24.00;95.40;;;;;;4991617;28;20023;-59
2022/06/27 11:51:58;;;;;;;5.72;1.88;;;24.20;95.20;;;;;;4992451;28;20031;-58
2022/06/27 11:54:24;;;;;;;5.50;1.67;;;24.70;95.00;;;;;;4984116;28;20046;-60
2022/06/27 11:56:52;;;;;;;7.75;1.50;;;25.00;94.30;;;;;;4978547;28;20045;-60
2022/06/27 11:59:19;;;;;;;5.07;1.45;;;25.40;93.80;;;;;;4981377;28;20033;-59
2022/06/27 12:01:59;;;;;;;4.25;1.60;;;25.20;94.00;;;;;;4983784;28;20030;-60
2022/06/27 12:04:29;;;;;;;8.82;1.60;;;25.30;94.00;;;;;;4983819;28;20436;-60
2022/06/27 12:06:57;;;;;;;4.97;1.65;;;25.10;94.50;;;;;;4984077;28;20019;-59
2022/06/27 12:09:25;;;;;;;5.75;1.50;;;25.00;92.50;;;;;;4983995;28;20399;-60
2022/06/27 12:11:54;;;;;;;4.53;1.52;;;24.20;93.60;;;;;;4979459;28;20054;-59
2022/06/27 12:14:21;;;;;;;4.45;1.40;;;24.70;94.20;;;;;;4981036;28;20093;-60
2022/06/27 12:16:49;;;;;;;6.82;1.75;;;25.10;93.30;;;;;;4983815;28;20107;-60
2022/06/27 12:19:15;;;;;;;4.63;1.50;;;26.00;94.00;;;;;;4984218;28;20031;-60
2022/06/27 12:21:42;;;;;;;3.63;1.33;;;26.40;94.60;;;;;;4984097;28;20046;-59
2022/06/27 12:24:09;;;;;;;6.47;1.60;;;25.90;91.00;;;;;;4981427;28;20088;-60
2022/06/27 12:26:35;;;;;;;5.65;1.60;;;25.20;92.60;;;;;;4979635;28;20392;-60
2022/06/27 12:29:00;;;;;;;5.15;1.83;;;25.20;93.50;;;;;;4982909;28;20034;-60
2022/06/27 12:31:26;;;;;;;5.53;1.52;;;25.70;93.30;;;;;;4983881;28;20057;-60
2022/06/27 12:33:52;;;;;;;4.40;1.33;;;25.40;93.80;;;;;;4982616;28;20035;-60
2022/06/27 12:36:18;;;;;;;5.60;1.60;;;25.20;94.70;;;;;;4991546;28;20039;-59
2022/06/27 12:38:44;;;;;;;5.63;1.60;;;25.30;93.60;;;;;;4993361;28;20487;-61
2022/06/27 12:41:14;;;;;;;3.92;1.40;;;25.30;94.50;;;;;;4990917;28;20109;-60
2022/06/27 12:43:45;;;;;;;3.58;1.50;;;25.20;94.20;;;;;;4990059;28;20037;-60
2022/06/27 12:46:12;;;;;;;4.15;1.38;;;25.60;94.00;;;;;;4989968;28;20415;-60
2022/06/27 12:48:38;;;;;;;5.43;1.30;;;26.10;93.50;;;;;;4990245;28;20748;-59
2022/06/27 12:51:05;;;;;;;5.57;1.50;;;25.50;93.50;;;;;;4993167;28;20045;-60
2022/06/27 12:53:31;;;;;;;4.28;1.65;;;25.60;94.30;;;;;;4991921;28;20034;-59